createdAt,value
2022-11-30T00:00:41.017Z,81.24
2022-11-30T00:03:08.591Z,81.92
2022-11-30T00:05:35.255Z,81.71
2022-11-30T00:08:01.866Z,81.04
2022-11-30T00:10:28.465Z,81.13
2022-11-30T00:12:55.159Z,81.39
2022-11-30T00:15:21.804Z,81.31
2022-11-30T00:17:48.481Z,81.50
2022-11-30T00:20:15.871Z,81.37
2022-11-30T00:22:42.991Z,81.90
2022-11-30T00:25:10.037Z,81.28
2022-11-30T00:27:36.722Z,81.47
2022-11-30T00:30:03.920Z,80.90
2022-11-30T00:32:30.474Z,81.84
2022-11-30T00:34:57.071Z,81.81
2022-11-30T00:37:23.657Z,81.71
2022-11-30T00:39:50.247Z,80.85
2022-11-30T00:42:16.896Z,81.80
2022-11-30T00:44:43.519Z,80.67
2022-11-30T00:47:10.135Z,81.27
2022-11-30T00:49:36.725Z,80.97
2022-11-30T00:52:03.738Z,81.48
2022-11-30T00:54:30.355Z,81.47
2022-11-30T00:56:57.017Z,81.49
2022-11-30T00:59:23.626Z,80.55
2022-11-30T01:01:50.259Z,80.76
2022-11-30T01:04:16.858Z,80.89
2022-11-30T01:06:43.438Z,81.39
2022-11-30T01:09:10.077Z,80.39
2022-11-30T01:11:36.704Z,81.63
2022-11-30T01:14:03.410Z,80.54
2022-11-30T01:16:32.730Z,81.27
2022-11-30T01:19:00.038Z,81.12
2022-11-30T01:21:29.326Z,80.65
2022-11-30T01:23:57.415Z,80.60
2022-11-30T01:26:25.193Z,80.61
2022-11-30T01:28:54.570Z,80.94
2022-11-30T01:31:24.796Z,80.20
2022-11-30T01:33:56.155Z,80.52
2022-11-30T01:36:26.360Z,80.44
2022-11-30T01:38:57.296Z,80.97
2022-11-30T01:41:28.358Z,80.79
2022-11-30T01:43:58.232Z,81.13
2022-11-30T01:46:46.678Z,80.87
2022-11-30T01:49:18.329Z,80.01
2022-11-30T01:51:51.869Z,80.86
2022-11-30T01:54:23.265Z,80.75
2022-11-30T01:56:55.913Z,79.87
2022-11-30T01:59:24.765Z,81.04
2022-11-30T02:01:54.023Z,80.69
2022-11-30T02:04:28.824Z,81.00
2022-11-30T02:06:57.670Z,79.89
2022-11-30T02:09:26.832Z,79.91
2022-11-30T02:11:53.988Z,80.90
2022-11-30T02:29:23.337Z,79.42
2022-11-30T02:32:15.409Z,80.77
2022-11-30T02:34:44.097Z,80.71
2022-11-30T02:37:13.863Z,79.76
2022-11-30T02:39:40.483Z,79.93
2022-11-30T02:42:12.679Z,80.38
2022-11-30T02:44:41.876Z,79.59
2022-11-30T02:52:26.777Z,80.53
2022-11-30T02:54:59.235Z,79.82
2022-11-30T02:57:25.825Z,79.89
2022-11-30T02:59:52.947Z,80.74
2022-11-30T03:02:19.549Z,80.63
2022-11-30T03:04:46.385Z,80.49
2022-11-30T03:07:13.168Z,80.97
2022-11-30T03:09:39.810Z,79.85
2022-11-30T03:12:06.575Z,80.04
2022-11-30T03:14:33.192Z,80.95
2022-11-30T03:16:59.769Z,80.79
2022-11-30T03:19:26.417Z,79.75
2022-11-30T03:21:52.992Z,79.33
2022-11-30T03:24:19.577Z,80.10
2022-11-30T03:26:46.278Z,80.67
2022-11-30T03:29:12.856Z,80.20
2022-11-30T03:31:39.448Z,80.62
2022-11-30T03:34:06.004Z,80.54
2022-11-30T03:36:32.577Z,79.57
2022-11-30T03:38:59.174Z,79.78
2022-11-30T03:41:25.820Z,79.48
2022-11-30T03:43:52.385Z,80.20
2022-11-30T03:46:19.009Z,80.76
2022-11-30T03:48:45.962Z,80.71
2022-11-30T03:51:13.326Z,80.28
2022-11-30T03:53:40.892Z,80.46
2022-11-30T03:56:09.546Z,79.40
2022-11-30T03:58:36.676Z,80.17
2022-11-30T04:01:24.532Z,79.62
2022-11-30T04:03:52.305Z,80.65
2022-11-30T04:06:19.306Z,80.76
2022-11-30T04:08:46.541Z,80.88
2022-11-30T04:11:13.396Z,80.47
2022-11-30T04:13:40.679Z,80.60
2022-11-30T04:16:08.310Z,79.59
2022-11-30T04:18:36.467Z,79.76
2022-11-30T04:21:03.970Z,79.81
2022-11-30T04:23:33.457Z,80.63
2022-11-30T04:26:00.041Z,80.84
2022-11-30T04:28:26.619Z,79.63
2022-11-30T04:30:54.340Z,79.57
2022-11-30T04:33:21.133Z,80.66
2022-11-30T04:35:51.591Z,80.45
2022-11-30T04:38:18.059Z,80.17
2022-11-30T04:40:44.803Z,81.13
2022-11-30T04:43:12.137Z,80.30
2022-11-30T04:45:39.236Z,80.95
2022-11-30T04:48:06.824Z,79.95
2022-11-30T04:50:33.711Z,79.66
2022-11-30T04:53:00.448Z,79.30
2022-11-30T04:55:27.061Z,80.26
2022-11-30T04:57:53.714Z,79.53
2022-11-30T05:00:20.818Z,80.60
2022-11-30T05:02:52.532Z,79.53
2022-11-30T05:05:20.200Z,80.22
2022-11-30T05:07:51.471Z,80.66
2022-11-30T05:10:18.269Z,80.02
2022-11-30T05:12:45.368Z,80.94
2022-11-30T05:15:12.373Z,81.11
2022-11-30T05:17:39.674Z,79.76
2022-11-30T05:20:06.982Z,80.45
2022-11-30T05:22:35.221Z,79.82
2022-11-30T05:25:02.145Z,80.25
2022-11-30T05:27:28.850Z,81.04
2022-11-30T05:29:55.442Z,80.50
2022-11-30T05:32:22.040Z,79.94
2022-11-30T05:34:52.209Z,80.18
2022-11-30T05:37:19.876Z,81.01
2022-11-30T05:39:46.559Z,79.88
2022-11-30T05:42:13.139Z,80.61
2022-11-30T05:44:39.762Z,79.99
2022-11-30T05:47:06.712Z,80.55
2022-11-30T05:49:33.348Z,80.56
2022-11-30T05:51:59.921Z,79.37
2022-11-30T05:54:26.482Z,80.99
2022-11-30T05:56:55.083Z,79.63
2022-11-30T05:59:22.623Z,79.37
2022-11-30T06:01:51.397Z,80.30
2022-11-30T06:04:18.041Z,80.32
2022-11-30T06:06:44.596Z,79.57
2022-11-30T06:09:11.209Z,80.52
2022-11-30T06:11:37.764Z,80.00
2022-11-30T06:14:04.425Z,79.59
2022-11-30T06:16:30.999Z,80.89
2022-11-30T06:18:57.744Z,80.97
2022-11-30T06:21:25.011Z,80.24
2022-11-30T06:23:52.520Z,79.47
2022-11-30T06:26:19.124Z,80.56
2022-11-30T06:28:48.367Z,80.91
2022-11-30T06:31:15.600Z,80.91
2022-11-30T06:33:42.281Z,81.03
2022-11-30T06:36:09.261Z,81.14
2022-11-30T06:38:35.845Z,80.97
2022-11-30T06:41:08.628Z,80.25
2022-11-30T06:43:36.829Z,79.57
2022-11-30T06:46:04.730Z,80.13
2022-11-30T06:48:31.623Z,80.97
2022-11-30T06:50:58.955Z,81.02
2022-11-30T06:53:25.997Z,80.07
2022-11-30T06:55:53.473Z,79.85
2022-11-30T06:58:20.032Z,80.09
2022-11-30T07:00:46.775Z,80.18
2022-11-30T07:03:14.298Z,81.64
2022-11-30T07:05:44.381Z,81.13
2022-11-30T07:08:12.278Z,81.00
2022-11-30T07:10:41.223Z,81.38
2022-11-30T07:13:11.208Z,80.98
2022-11-30T07:15:39.099Z,80.34
2022-11-30T07:18:05.978Z,80.35
2022-11-30T07:20:33.141Z,80.12
2022-11-30T07:23:19.844Z,81.28
2022-11-30T07:26:06.360Z,82.09
2022-11-30T07:28:36.097Z,81.42
2022-11-30T07:31:16.383Z,80.66
2022-11-30T07:33:43.675Z,81.86
2022-11-30T07:36:10.619Z,80.58
2022-11-30T07:38:38.265Z,81.43
2022-11-30T07:41:05.162Z,81.08
2022-11-30T07:43:32.101Z,80.60
2022-11-30T07:45:59.136Z,81.67
2022-11-30T07:48:25.782Z,80.52
2022-11-30T07:50:52.457Z,81.84
2022-11-30T07:53:19.045Z,81.05
2022-11-30T07:55:45.908Z,82.21
2022-11-30T07:58:17.097Z,81.46
2022-11-30T08:00:44.237Z,81.32
2022-11-30T08:03:10.960Z,81.10
2022-11-30T08:05:37.512Z,81.42
2022-11-30T08:08:04.189Z,81.24
2022-11-30T08:10:30.785Z,81.49
2022-11-30T08:12:57.370Z,82.85
2022-11-30T08:15:29.183Z,82.27
2022-11-30T08:18:05.180Z,81.91
2022-11-30T08:20:31.797Z,81.88
2022-11-30T08:22:58.873Z,83.30
2022-11-30T08:25:25.479Z,82.44
2022-11-30T08:27:52.043Z,83.32
2022-11-30T08:30:18.713Z,83.74
2022-11-30T08:32:45.260Z,83.28
2022-11-30T08:35:11.850Z,82.28
2022-11-30T08:37:38.913Z,83.17
2022-11-30T08:40:06.251Z,82.38
2022-11-30T08:42:32.835Z,82.41
2022-11-30T08:44:59.767Z,82.12
2022-11-30T08:47:26.720Z,83.24
2022-11-30T08:49:53.345Z,82.89
2022-11-30T08:52:20.037Z,84.10
2022-11-30T08:54:48.669Z,82.42
2022-11-30T08:57:17.650Z,83.23
2022-11-30T08:59:44.769Z,82.65
2022-11-30T09:02:13.449Z,83.07
2022-11-30T09:04:40.025Z,82.48
2022-11-30T09:07:06.717Z,82.58
2022-11-30T09:09:33.311Z,83.49
2022-11-30T09:11:59.895Z,83.35
2022-11-30T09:14:26.631Z,82.67
2022-11-30T09:16:54.424Z,83.03
2022-11-30T09:19:21.499Z,83.48
2022-11-30T09:21:51.872Z,83.28
2022-11-30T09:24:19.451Z,83.36
2022-11-30T09:26:45.989Z,83.82
2022-11-30T09:29:12.590Z,83.58
2022-11-30T09:31:39.213Z,83.57
2022-11-30T09:34:05.792Z,82.47
2022-11-30T09:36:34.019Z,83.32
2022-11-30T09:39:00.892Z,84.31
2022-11-30T09:44:20.036Z,83.24
2022-11-30T09:46:53.272Z,83.08
2022-11-30T09:49:27.517Z,83.23
2022-11-30T09:51:58.636Z,84.19
2022-11-30T09:54:36.149Z,82.64
2022-11-30T09:57:18.718Z,83.28
2022-11-30T09:59:53.497Z,82.89
2022-11-30T10:02:22.494Z,82.62
2022-11-30T10:04:49.783Z,83.58
2022-11-30T10:07:49.564Z,82.08
2022-11-30T10:27:12.491Z,80.44
2022-11-30T10:29:41.983Z,81.17
2022-11-30T10:34:55.023Z,80.49
2022-11-30T10:37:29.017Z,79.24
2022-11-30T10:45:29.222Z,78.42
2022-11-30T10:48:03.855Z,78.35
2022-11-30T10:50:31.620Z,79.17
2022-11-30T10:53:00.279Z,79.51
2022-11-30T10:55:31.517Z,78.77
2022-11-30T10:58:05.251Z,79.44
2022-11-30T11:00:32.532Z,79.30
2022-11-30T11:02:59.181Z,79.01
2022-11-30T11:05:29.420Z,78.24
2022-11-30T11:13:36.680Z,77.22
2022-11-30T11:16:04.909Z,77.93
2022-11-30T11:18:33.592Z,78.02
2022-11-30T11:21:18.763Z,78.25
2022-11-30T11:23:47.389Z,78.44
2022-11-30T11:28:56.276Z,77.54
2022-11-30T11:31:44.291Z,77.34
2022-11-30T11:34:34.555Z,76.01
2022-11-30T11:37:33.934Z,75.29
2022-11-30T11:42:45.754Z,75.61
2022-11-30T11:45:30.851Z,75.63
2022-11-30T11:48:01.529Z,75.92
2022-11-30T11:51:05.590Z,75.90
2022-11-30T11:53:38.044Z,75.75
2022-11-30T11:56:23.810Z,75.78
2022-11-30T12:06:53.015Z,76.04
2022-11-30T12:09:27.472Z,75.87
2022-11-30T12:11:54.082Z,75.82
2022-11-30T12:14:20.667Z,76.13
2022-11-30T12:19:54.579Z,75.85
2022-11-30T12:28:21.618Z,75.15
2022-11-30T12:39:15.080Z,74.34
2022-11-30T12:41:50.906Z,74.70
2022-11-30T12:44:45.253Z,74.92
2022-11-30T13:04:04.407Z,74.61
2022-11-30T13:06:41.064Z,74.69
2022-11-30T13:11:58.154Z,75.01
2022-11-30T13:14:27.183Z,75.41
2022-11-30T13:17:01.493Z,75.26
2022-11-30T13:22:17.462Z,75.58
2022-11-30T13:24:52.235Z,75.46
2022-11-30T13:27:26.559Z,74.86
2022-11-30T13:33:00.069Z,75.18
2022-11-30T13:41:05.546Z,75.22
2022-11-30T13:43:43.181Z,75.39
2022-11-30T13:48:47.670Z,75.35
2022-11-30T13:51:34.651Z,74.70
2022-11-30T13:59:56.407Z,74.35
2022-11-30T14:18:31.574Z,74.46
2022-11-30T14:21:04.522Z,75.14
2022-11-30T14:26:13.473Z,75.12
2022-11-30T14:28:50.375Z,75.61
2022-11-30T14:31:22.270Z,74.89
2022-11-30T14:36:35.589Z,73.98
2022-11-30T14:39:02.430Z,74.52
2022-11-30T14:41:30.960Z,75.55
2022-11-30T14:44:03.470Z,75.66
2022-11-30T14:46:31.412Z,75.14
2022-11-30T14:51:48.290Z,74.45
2022-11-30T14:54:30.913Z,74.64
2022-11-30T14:57:09.134Z,74.66
2022-11-30T15:04:57.939Z,75.27
2022-11-30T15:07:26.436Z,75.59
2022-11-30T15:10:01.753Z,75.28
2022-11-30T15:12:28.442Z,75.84
2022-11-30T15:15:15.378Z,75.96
2022-11-30T15:17:47.244Z,74.96
2022-11-30T15:20:28.867Z,75.50
2022-11-30T15:22:58.501Z,75.97
2022-11-30T15:25:34.070Z,75.09
2022-11-30T15:28:01.455Z,75.30
2022-11-30T15:30:28.540Z,75.43
2022-11-30T15:32:57.597Z,76.05
2022-11-30T15:35:38.798Z,76.16
2022-11-30T15:38:19.480Z,76.14
2022-11-30T15:40:51.829Z,75.26
2022-11-30T15:43:23.744Z,75.16
2022-11-30T15:45:57.212Z,75.49
2022-11-30T15:48:35.787Z,75.37
2022-11-30T15:51:02.660Z,76.16
2022-11-30T15:53:50.098Z,75.67
2022-11-30T15:56:26.995Z,75.74
2022-11-30T15:59:13.362Z,75.49
2022-11-30T16:05:14.474Z,75.55
2022-11-30T16:08:01.321Z,76.28
2022-11-30T16:10:35.566Z,76.59
2022-11-30T16:13:02.664Z,76.38
2022-11-30T16:15:32.761Z,75.24
2022-11-30T16:18:13.584Z,75.95
2022-11-30T16:20:42.786Z,76.49
2022-11-30T16:23:15.146Z,76.69
2022-11-30T16:25:43.063Z,76.92
2022-11-30T16:28:11.397Z,76.90
2022-11-30T16:30:38.738Z,75.54
2022-11-30T16:33:05.804Z,76.62
2022-11-30T16:35:57.150Z,76.57
2022-11-30T16:38:24.914Z,75.98
2022-11-30T16:40:54.036Z,75.97
2022-11-30T16:43:20.846Z,75.73
2022-11-30T16:45:50.521Z,76.25
2022-11-30T16:48:17.812Z,76.62
2022-11-30T16:50:44.904Z,76.52
2022-11-30T16:53:15.722Z,76.09
2022-11-30T16:55:42.540Z,76.81
2022-11-30T16:58:09.122Z,76.89
2022-11-30T17:00:36.052Z,75.91
2022-11-30T17:03:16.665Z,76.19
2022-11-30T17:05:43.240Z,76.29
2022-11-30T17:08:10.682Z,75.62
2022-11-30T17:10:38.642Z,76.74
2022-11-30T17:13:05.977Z,76.92
2022-11-30T17:15:32.596Z,76.16
2022-11-30T17:17:59.465Z,77.53
2022-11-30T17:20:27.867Z,76.23
2022-11-30T17:22:54.453Z,75.79
2022-11-30T17:25:22.561Z,77.55
2022-11-30T17:27:49.997Z,75.82
2022-11-30T17:30:19.548Z,77.10
2022-11-30T17:32:46.725Z,77.27
2022-11-30T17:35:14.523Z,77.19
2022-11-30T17:37:41.062Z,76.43
2022-11-30T17:40:08.814Z,77.24
2022-11-30T17:42:35.364Z,76.43
2022-11-30T17:45:01.873Z,77.63
2022-11-30T17:47:28.458Z,75.81
2022-11-30T17:49:55.112Z,76.35
2022-11-30T17:52:21.675Z,76.84
2022-11-30T17:54:48.488Z,75.99
2022-11-30T17:57:15.130Z,76.04
2022-11-30T17:59:41.678Z,76.22
2022-11-30T18:02:11.743Z,77.67
2022-11-30T18:04:38.374Z,77.73
2022-11-30T18:07:04.939Z,76.69
2022-11-30T18:09:37.830Z,77.43
2022-11-30T18:12:07.787Z,76.65
2022-11-30T18:14:34.359Z,77.14
2022-11-30T18:17:00.949Z,76.12
2022-11-30T18:19:28.151Z,76.12
2022-11-30T18:21:55.549Z,75.95
2022-11-30T18:24:25.193Z,76.45
2022-11-30T18:26:52.664Z,76.49
2022-11-30T18:29:19.876Z,77.78
2022-11-30T18:31:48.495Z,76.50
2022-11-30T18:34:15.467Z,77.38
2022-11-30T18:36:42.061Z,77.07
2022-11-30T18:39:08.883Z,77.49
2022-11-30T18:41:35.635Z,77.66
2022-11-30T18:44:02.194Z,76.11
2022-11-30T18:46:28.773Z,76.75
2022-11-30T18:48:56.425Z,77.11
2022-11-30T18:51:26.148Z,77.35
2022-11-30T18:53:59.746Z,76.61
2022-11-30T18:56:28.877Z,76.26
2022-11-30T18:58:57.950Z,77.47
2022-11-30T19:01:25.711Z,77.52
2022-11-30T19:03:54.788Z,77.42
2022-11-30T19:06:21.831Z,76.05
2022-11-30T19:08:48.779Z,77.73
2022-11-30T19:11:16.861Z,77.42
2022-11-30T19:13:44.570Z,77.49
2022-11-30T19:16:14.639Z,77.52
2022-11-30T19:18:41.413Z,76.35
2022-11-30T19:21:10.058Z,77.92
2022-11-30T19:23:38.078Z,76.30
2022-11-30T19:26:06.782Z,77.30
2022-11-30T19:28:35.314Z,77.43
2022-11-30T19:31:09.365Z,76.81
2022-11-30T19:33:38.362Z,76.72
2022-11-30T19:36:06.685Z,77.07
2022-11-30T19:38:33.456Z,77.70
2022-11-30T19:41:04.919Z,77.08
2022-11-30T19:43:31.497Z,76.89
2022-11-30T19:46:05.644Z,77.70
2022-11-30T19:48:33.108Z,76.58
2022-11-30T19:51:00.008Z,76.91
2022-11-30T19:53:28.117Z,76.35
2022-11-30T19:55:57.958Z,77.12
2022-11-30T19:58:24.796Z,78.44
2022-11-30T20:00:51.382Z,76.71
2022-11-30T20:03:18.849Z,77.87
2022-11-30T20:05:49.295Z,76.91
2022-11-30T20:08:16.191Z,76.70
2022-11-30T20:10:42.819Z,76.83
2022-11-30T20:13:10.981Z,76.95
2022-11-30T20:15:39.464Z,78.08
2022-11-30T20:18:07.500Z,76.46
2022-11-30T20:20:34.847Z,76.89
2022-11-30T20:23:01.954Z,78.11
2022-11-30T20:25:31.107Z,78.26
2022-11-30T20:27:57.959Z,77.30
2022-11-30T20:32:51.683Z,76.88
2022-11-30T20:35:18.255Z,77.67
2022-11-30T20:37:44.845Z,77.53
2022-11-30T20:40:11.850Z,76.75
2022-11-30T20:42:38.504Z,76.51
2022-11-30T20:45:05.539Z,78.03
2022-11-30T20:47:35.341Z,77.17
2022-11-30T20:50:03.016Z,77.85
2022-11-30T20:52:29.655Z,77.92
2022-11-30T20:54:56.183Z,77.26
2022-11-30T20:57:23.269Z,77.66
2022-11-30T20:59:49.852Z,76.48
2022-11-30T21:02:16.567Z,77.05
2022-11-30T21:04:43.228Z,78.15
2022-11-30T21:07:09.734Z,77.57
2022-11-30T21:09:36.275Z,77.56
2022-11-30T21:12:02.921Z,76.91
2022-11-30T21:14:29.468Z,78.22
2022-11-30T21:16:55.989Z,78.34
2022-11-30T21:19:22.564Z,78.12
2022-11-30T21:21:49.123Z,77.99
2022-11-30T21:24:15.718Z,76.55
2022-11-30T21:26:43.582Z,78.10
2022-11-30T21:29:12.838Z,77.40
2022-11-30T21:31:39.800Z,77.84
2022-11-30T21:34:06.666Z,77.86
2022-11-30T21:36:33.671Z,77.73
2022-11-30T21:39:05.953Z,77.48
2022-11-30T21:41:35.412Z,77.41
2022-11-30T21:44:02.849Z,77.78
2022-11-30T21:46:30.078Z,78.08
2022-11-30T21:48:56.848Z,77.40
2022-11-30T21:51:26.176Z,77.56
2022-11-30T21:53:55.039Z,76.72
2022-11-30T21:56:25.625Z,77.24
2022-11-30T21:58:54.010Z,76.42
2022-11-30T22:01:25.491Z,77.59
2022-11-30T22:03:54.042Z,77.59
2022-11-30T22:06:23.353Z,76.98
2022-11-30T22:08:50.305Z,78.27
2022-11-30T22:11:21.460Z,77.07
2022-11-30T22:13:53.038Z,77.34
2022-11-30T22:16:22.034Z,77.95
2022-11-30T22:18:48.998Z,77.42
2022-11-30T22:21:17.812Z,76.81
2022-11-30T22:23:47.366Z,76.81
2022-11-30T22:28:54.934Z,76.72
2022-11-30T22:31:24.020Z,77.08
2022-11-30T22:33:50.934Z,77.46
2022-11-30T22:36:21.831Z,76.70
2022-11-30T22:38:54.223Z,76.21
2022-11-30T22:41:21.003Z,76.98
2022-11-30T22:43:48.134Z,77.52
2022-11-30T22:46:17.864Z,76.49
2022-11-30T22:48:45.488Z,76.69
2022-11-30T22:51:14.733Z,77.51
2022-11-30T22:53:41.823Z,77.56
2022-11-30T22:56:12.971Z,77.63
2022-11-30T22:58:40.936Z,76.99
2022-11-30T23:01:10.555Z,77.46
2022-11-30T23:03:38.105Z,77.10
2022-11-30T23:06:05.520Z,77.84
2022-11-30T23:08:32.283Z,76.44
2022-11-30T23:11:00.131Z,77.53
2022-11-30T23:13:27.608Z,76.35
2022-11-30T23:15:57.504Z,77.73
2022-11-30T23:18:24.649Z,77.29
2022-11-30T23:20:51.215Z,78.26
2022-11-30T23:23:18.348Z,76.96
2022-11-30T23:25:44.953Z,76.82
2022-11-30T23:28:11.512Z,77.88
2022-11-30T23:30:38.054Z,76.65
2022-11-30T23:33:04.739Z,77.72
2022-11-30T23:35:31.315Z,76.96
2022-11-30T23:37:57.868Z,76.66
2022-11-30T23:40:24.400Z,77.44
2022-11-30T23:42:50.986Z,77.43
2022-11-30T23:45:17.619Z,77.41
2022-11-30T23:47:44.173Z,77.77
2022-11-30T23:50:11.167Z,76.57
2022-11-30T23:52:37.813Z,76.76
2022-11-30T23:55:04.765Z,76.43
2022-11-30T23:57:31.313Z,76.64
2022-11-30T23:59:57.877Z,77.80
